createdAt,value
2023-03-12T00:00:23.767Z,3.43
2023-03-12T00:02:51.744Z,3.70
2023-03-12T00:05:19.672Z,2.80
2023-03-12T00:07:47.488Z,2.33
2023-03-12T00:10:15.475Z,3.00
2023-03-12T00:12:43.334Z,2.47
2023-03-12T00:15:11.484Z,2.07
2023-03-12T00:17:40.644Z,2.03
2023-03-12T00:20:09.221Z,2.10
2023-03-12T00:22:37.186Z,2.83
2023-03-12T00:25:06.595Z,2.80
2023-03-12T00:27:34.417Z,3.10
2023-03-12T00:30:02.466Z,2.87
2023-03-12T00:32:30.296Z,3.43
2023-03-12T00:34:59.464Z,3.93
2023-03-12T00:37:27.472Z,4.77
2023-03-12T00:39:55.384Z,4.90
2023-03-12T00:42:23.209Z,3.50
2023-03-12T00:44:51.006Z,4.00
2023-03-12T00:47:18.829Z,3.37
2023-03-12T00:49:46.697Z,2.80
2023-03-12T00:52:15.916Z,2.63
2023-03-12T00:54:43.781Z,2.17
2023-03-12T00:57:11.586Z,1.97
2023-03-12T00:59:40.462Z,2.00
2023-03-12T01:02:08.621Z,2.20
2023-03-12T01:04:36.531Z,2.40
2023-03-12T01:07:04.525Z,2.03
2023-03-12T01:09:33.804Z,2.80
2023-03-12T01:12:01.701Z,2.37
2023-03-12T01:14:29.584Z,2.20
2023-03-12T01:16:57.488Z,2.27
2023-03-12T01:19:25.440Z,2.40
2023-03-12T01:21:53.254Z,2.37
2023-03-12T01:24:21.048Z,1.97
2023-03-12T01:26:50.233Z,2.43
2023-03-12T01:29:18.199Z,2.13
2023-03-12T01:31:46.126Z,2.07
2023-03-12T01:34:14.006Z,2.30
2023-03-12T01:36:42.670Z,2.70
2023-03-12T01:39:10.482Z,2.53
2023-03-12T01:41:38.398Z,3.23
2023-03-12T01:44:08.358Z,3.30
2023-03-12T01:46:36.960Z,3.33
2023-03-12T01:49:09.022Z,3.20
2023-03-12T01:51:40.584Z,4.47
2023-03-12T01:54:13.709Z,3.70
2023-03-12T01:56:42.437Z,3.33
2023-03-12T01:59:18.045Z,3.63
2023-03-12T02:01:46.710Z,3.03
2023-03-12T02:04:16.644Z,2.67
2023-03-12T02:06:49.446Z,2.47
2023-03-12T02:09:20.209Z,2.20
2023-03-12T02:11:48.551Z,2.03
2023-03-12T02:14:17.865Z,3.00
2023-03-12T02:16:46.223Z,2.57
2023-03-12T02:19:23.131Z,3.30
2023-03-12T02:21:51.168Z,3.17
2023-03-12T02:24:27.013Z,3.23
2023-03-12T02:26:57.046Z,2.97
2023-03-12T02:29:25.683Z,3.00
2023-03-12T02:31:57.376Z,2.70
2023-03-12T02:34:25.267Z,2.67
2023-03-12T02:36:53.278Z,3.17
2023-03-12T02:39:21.118Z,2.77
2023-03-12T02:41:53.920Z,3.20
2023-03-12T02:44:25.020Z,3.30
2023-03-12T02:46:55.057Z,3.67
2023-03-12T02:49:25.565Z,2.93
2023-03-12T02:51:53.723Z,3.90
2023-03-12T02:54:23.115Z,3.70
2023-03-12T02:56:51.897Z,3.20
2023-03-12T02:59:21.905Z,3.23
2023-03-12T03:01:55.690Z,3.10
2023-03-12T03:04:24.364Z,3.77
2023-03-12T03:06:52.665Z,3.03
2023-03-12T03:09:22.195Z,3.57
2023-03-12T03:11:50.134Z,3.70
2023-03-12T03:14:18.011Z,4.10
2023-03-12T03:16:45.916Z,4.50
2023-03-12T03:19:15.083Z,3.73
2023-03-12T03:21:43.864Z,4.20
2023-03-12T03:24:11.923Z,5.03
2023-03-12T03:26:39.799Z,4.07
2023-03-12T03:29:07.645Z,3.37
2023-03-12T03:31:35.467Z,3.60
2023-03-12T03:34:04.161Z,3.67
2023-03-12T03:36:33.524Z,3.20
2023-03-12T03:39:01.530Z,2.67
2023-03-12T03:41:29.378Z,2.90
2023-03-12T03:43:58.669Z,2.30
2023-03-12T03:46:27.388Z,2.10
2023-03-12T03:48:55.247Z,2.20
2023-03-12T03:51:23.076Z,1.80
2023-03-12T03:53:52.199Z,1.80
2023-03-12T03:56:20.094Z,1.87
2023-03-12T03:58:48.547Z,1.93
2023-03-12T04:01:16.679Z,1.70
2023-03-12T04:03:44.634Z,1.60
2023-03-12T04:06:12.950Z,1.77
2023-03-12T04:08:40.862Z,1.63
2023-03-12T04:11:12.011Z,1.70
2023-03-12T04:13:39.954Z,3.20
2023-03-12T04:16:08.842Z,2.87
2023-03-12T04:18:37.152Z,2.80
2023-03-12T04:21:05.860Z,2.73
2023-03-12T04:23:33.996Z,2.97
2023-03-12T04:26:02.015Z,2.50
2023-03-12T04:28:31.825Z,2.30
2023-03-12T04:31:01.263Z,2.63
2023-03-12T04:33:30.258Z,2.07
2023-03-12T04:35:58.171Z,3.33
2023-03-12T04:38:27.841Z,3.20
2023-03-12T04:41:00.141Z,3.13
2023-03-12T04:43:28.207Z,3.97
2023-03-12T04:45:57.908Z,4.43
2023-03-12T04:48:26.503Z,4.07
2023-03-12T04:50:54.775Z,4.23
2023-03-12T04:53:23.443Z,4.37
2023-03-12T04:55:51.575Z,4.07
2023-03-12T04:58:19.850Z,3.70
2023-03-12T05:00:48.595Z,2.87
2023-03-12T05:03:18.412Z,5.37
2023-03-12T05:05:46.500Z,4.63
2023-03-12T05:08:14.358Z,3.77
2023-03-12T05:10:45.163Z,4.93
2023-03-12T05:13:15.508Z,4.13
2023-03-12T05:15:43.532Z,4.10
2023-03-12T05:18:11.457Z,2.90
2023-03-12T05:20:41.465Z,3.17
2023-03-12T05:23:09.553Z,2.63
2023-03-12T05:25:40.175Z,2.40
2023-03-12T05:28:08.276Z,2.47
2023-03-12T05:30:36.174Z,1.33
2023-03-12T05:33:04.118Z,2.10
2023-03-12T05:35:32.050Z,1.87
2023-03-12T05:38:01.451Z,1.87
2023-03-12T05:40:29.391Z,1.60
2023-03-12T05:42:57.262Z,2.27
2023-03-12T05:45:25.072Z,3.27
2023-03-12T05:47:52.915Z,2.73
2023-03-12T05:50:20.903Z,3.13
2023-03-12T05:52:48.853Z,3.00
2023-03-12T05:55:18.192Z,2.83
2023-03-12T05:57:46.007Z,3.00
2023-03-12T06:00:15.978Z,2.47
2023-03-12T06:02:44.648Z,2.87
2023-03-12T06:05:12.930Z,3.00
2023-03-12T06:07:40.816Z,2.60
2023-03-12T06:10:09.765Z,2.87
2023-03-12T06:12:39.239Z,2.77
2023-03-12T06:15:07.811Z,2.80
2023-03-12T06:17:35.823Z,3.00
2023-03-12T06:20:03.735Z,3.00
2023-03-12T06:22:31.629Z,3.10
2023-03-12T06:24:59.687Z,3.03
2023-03-12T06:27:27.796Z,3.23
2023-03-12T06:29:57.212Z,2.83
2023-03-12T06:32:25.024Z,3.33
2023-03-12T06:34:52.978Z,3.30
2023-03-12T06:37:20.841Z,3.20
2023-03-12T06:39:48.759Z,3.10
2023-03-12T06:42:17.764Z,3.83
2023-03-12T06:44:45.926Z,3.50
2023-03-12T06:47:17.531Z,11.00
2023-03-12T06:49:45.614Z,11.57
2023-03-12T06:52:13.465Z,16.60
2023-03-12T06:54:41.319Z,17.50
2023-03-12T06:57:09.158Z,19.37
2023-03-12T06:59:37.051Z,16.50
2023-03-12T07:02:05.025Z,14.50
2023-03-12T07:04:34.186Z,9.57
2023-03-12T07:07:01.986Z,8.10
2023-03-12T07:09:30.063Z,5.07
2023-03-12T07:11:58.010Z,5.40
2023-03-12T07:14:25.856Z,6.93
2023-03-12T07:16:53.719Z,3.40
2023-03-12T07:19:21.531Z,3.30
2023-03-12T07:21:50.655Z,2.73
2023-03-12T07:24:18.463Z,2.80
2023-03-12T07:26:46.402Z,3.00
2023-03-12T07:29:14.376Z,3.30
2023-03-12T07:31:42.254Z,3.53
2023-03-12T07:34:10.256Z,3.07
2023-03-12T07:36:38.287Z,3.40
2023-03-12T07:39:08.855Z,2.77
2023-03-12T07:41:38.992Z,2.40
2023-03-12T07:44:07.032Z,2.60
2023-03-12T07:46:35.252Z,2.17
2023-03-12T07:49:03.090Z,2.27
2023-03-12T07:51:31.030Z,2.30
2023-03-12T07:53:58.870Z,2.77
2023-03-12T07:56:28.297Z,2.47
2023-03-12T07:58:56.535Z,2.47
2023-03-12T08:01:25.473Z,2.70
2023-03-12T08:03:53.427Z,2.37
2023-03-12T08:06:21.832Z,1.97
2023-03-12T08:08:49.738Z,2.10
2023-03-12T08:11:17.773Z,2.17
2023-03-12T08:13:47.009Z,2.10
2023-03-12T08:16:15.637Z,1.83
2023-03-12T08:18:44.429Z,2.27
2023-03-12T08:21:16.392Z,2.00
2023-03-12T08:23:44.448Z,2.00
2023-03-12T08:26:12.505Z,1.90
2023-03-12T08:28:40.305Z,1.50
2023-03-12T08:31:09.689Z,1.63
2023-03-12T08:33:41.253Z,1.87
2023-03-12T08:36:09.854Z,1.50
2023-03-12T08:38:37.861Z,1.67
2023-03-12T08:41:05.800Z,1.90
2023-03-12T08:43:33.604Z,1.67
2023-03-12T08:46:03.127Z,1.53
2023-03-12T08:48:33.198Z,1.53
2023-03-12T08:51:04.301Z,1.97
2023-03-12T08:53:33.132Z,1.80
2023-03-12T08:56:01.321Z,1.60
2023-03-12T08:58:29.736Z,1.83
2023-03-12T09:00:58.325Z,1.40
2023-03-12T09:03:27.301Z,1.43
2023-03-12T09:06:06.365Z,1.50
2023-03-12T09:08:34.296Z,1.63
2023-03-12T09:11:02.901Z,1.80
2023-03-12T09:13:50.709Z,1.37
2023-03-12T09:16:18.875Z,1.40
2023-03-12T09:18:46.736Z,1.40
2023-03-12T09:21:15.970Z,1.50
2023-03-12T09:23:43.920Z,1.47
2023-03-12T09:26:11.967Z,1.07
2023-03-12T09:28:40.031Z,2.53
2023-03-12T09:31:08.017Z,1.77
2023-03-12T09:33:35.943Z,1.30
2023-03-12T09:36:04.294Z,1.53
2023-03-12T09:38:35.415Z,1.10
2023-03-12T09:41:05.769Z,1.30
2023-03-12T09:43:38.836Z,1.53
2023-03-12T09:46:14.609Z,1.20
2023-03-12T09:48:44.312Z,1.37
2023-03-12T09:51:18.947Z,1.40
2023-03-12T09:53:52.312Z,1.53
2023-03-12T09:56:22.617Z,1.30
2023-03-12T09:58:54.550Z,1.27
2023-03-12T10:01:36.482Z,1.90
2023-03-12T10:04:27.597Z,1.30
2023-03-12T10:07:02.018Z,1.37
2023-03-12T10:09:41.558Z,1.37
2023-03-12T10:12:20.751Z,1.10
2023-03-12T10:15:04.533Z,1.93
2023-03-12T10:17:44.748Z,1.80
2023-03-12T10:20:47.171Z,1.37
2023-03-12T10:23:23.207Z,1.40
2023-03-12T10:25:58.330Z,1.40
2023-03-12T10:28:32.220Z,1.23
2023-03-12T10:31:04.043Z,1.10
2023-03-12T10:33:43.727Z,1.10
2023-03-12T10:36:17.496Z,1.40
2023-03-12T10:38:45.321Z,1.57
2023-03-12T10:41:17.582Z,1.60
2023-03-12T10:43:45.502Z,1.30
2023-03-12T10:46:55.410Z,1.20
2023-03-12T10:49:29.901Z,1.53
2023-03-12T10:51:59.843Z,1.67
2023-03-12T10:54:33.048Z,2.07
2023-03-12T10:57:02.544Z,1.50
2023-03-12T10:59:32.850Z,1.40
2023-03-12T11:02:01.715Z,1.50
2023-03-12T11:04:32.261Z,1.50
2023-03-12T11:07:17.192Z,1.90
2023-03-12T11:09:45.536Z,2.20
2023-03-12T11:12:30.762Z,1.27
2023-03-12T11:14:59.047Z,2.03
2023-03-12T11:17:29.132Z,1.67
2023-03-12T11:19:56.922Z,1.80
2023-03-12T11:22:32.889Z,1.90
2023-03-12T11:25:04.132Z,1.47
2023-03-12T11:27:42.030Z,1.30
2023-03-12T11:30:15.701Z,1.70
2023-03-12T11:32:46.328Z,1.40
2023-03-12T11:35:17.165Z,1.10
2023-03-12T11:37:56.693Z,1.27
2023-03-12T11:40:40.396Z,1.50
2023-03-12T11:43:43.172Z,1.40
2023-03-12T11:46:23.203Z,1.30
2023-03-12T11:49:03.816Z,1.20
2023-03-12T11:51:39.947Z,1.10
2023-03-12T11:54:22.872Z,1.50
2023-03-12T11:56:54.154Z,1.57
2023-03-12T11:59:40.116Z,1.20
2023-03-12T12:02:24.331Z,1.00
2023-03-12T12:05:18.143Z,1.13
2023-03-12T12:07:57.609Z,1.60
2023-03-12T12:10:33.284Z,19.00
2023-03-12T12:13:11.836Z,51.10
2023-03-12T12:15:47.092Z,5.63
2023-03-12T12:18:29.712Z,5.87
2023-03-12T12:21:06.092Z,3.93
2023-03-12T12:23:46.014Z,1.93
2023-03-12T12:26:14.925Z,5.03
2023-03-12T12:29:13.455Z,13.57
2023-03-12T12:31:49.743Z,13.80
2023-03-12T12:34:42.411Z,31.70
2023-03-12T12:37:21.871Z,15.57
2023-03-12T12:39:55.372Z,9.50
2023-03-12T12:42:28.899Z,6.00
2023-03-12T12:44:59.559Z,4.57
2023-03-12T12:47:36.640Z,4.20
2023-03-12T12:50:05.345Z,5.93
2023-03-12T12:52:33.849Z,11.43
2023-03-12T12:55:07.837Z,2.17
2023-03-12T12:57:42.712Z,1.90
2023-03-12T13:00:22.214Z,1.93
2023-03-12T13:02:52.461Z,1.37
2023-03-12T13:05:23.033Z,1.20
2023-03-12T13:07:50.952Z,1.20
2023-03-12T13:10:48.943Z,1.07
2023-03-12T13:13:27.386Z,1.63
2023-03-12T13:16:18.965Z,1.50
2023-03-12T13:18:59.584Z,1.03
2023-03-12T13:21:36.312Z,1.60
2023-03-12T13:24:18.305Z,1.13
2023-03-12T13:27:00.043Z,1.27
2023-03-12T13:29:38.989Z,1.13
2023-03-12T13:32:10.231Z,1.03
2023-03-12T13:34:48.328Z,0.83
2023-03-12T13:37:48.321Z,1.00
2023-03-12T13:40:49.720Z,0.93
2023-03-12T13:43:31.606Z,0.77
2023-03-12T13:46:03.255Z,1.40
2023-03-12T13:48:32.059Z,1.30
2023-03-12T13:51:11.465Z,1.10
2023-03-12T13:53:41.264Z,1.10
2023-03-12T13:56:13.690Z,1.00
2023-03-12T13:58:45.387Z,1.63
2023-03-12T14:01:18.721Z,1.17
2023-03-12T14:03:51.798Z,0.93
2023-03-12T14:06:23.264Z,1.60
2023-03-12T14:09:15.549Z,1.60
2023-03-12T14:11:55.734Z,1.20
2023-03-12T14:14:43.519Z,1.30
2023-03-12T14:17:20.159Z,1.13
2023-03-12T14:19:52.240Z,1.20
2023-03-12T14:22:23.852Z,1.20
2023-03-12T14:24:55.480Z,1.47
2023-03-12T14:27:28.053Z,1.33
2023-03-12T14:29:59.351Z,1.80
2023-03-12T14:32:30.862Z,1.33
2023-03-12T14:35:05.138Z,1.40
2023-03-12T14:37:40.577Z,1.70
2023-03-12T14:40:19.636Z,1.43
2023-03-12T14:42:47.926Z,1.63
2023-03-12T14:45:19.594Z,1.60
2023-03-12T14:47:49.124Z,1.43
2023-03-12T14:50:22.814Z,1.17
2023-03-12T14:52:52.045Z,1.47
2023-03-12T14:55:23.395Z,1.53
2023-03-12T14:58:04.540Z,7.50
2023-03-12T15:00:32.631Z,1.27
2023-03-12T15:03:04.938Z,1.53
2023-03-12T15:05:34.105Z,1.57
2023-03-12T15:08:04.719Z,2.73
2023-03-12T15:10:34.746Z,1.57
2023-03-12T15:13:03.989Z,1.60
2023-03-12T15:15:39.182Z,1.60
2023-03-12T15:18:09.491Z,1.53
2023-03-12T15:20:37.504Z,0.90
2023-03-12T15:23:07.862Z,2.03
2023-03-12T15:25:36.282Z,1.90
2023-03-12T15:28:09.793Z,1.40
2023-03-12T15:30:39.407Z,1.33
2023-03-12T15:33:13.867Z,2.77
2023-03-12T15:35:44.120Z,5.23
2023-03-12T15:38:18.225Z,2.57
2023-03-12T15:40:51.111Z,5.83
2023-03-12T15:43:21.895Z,3.03
2023-03-12T15:45:57.699Z,1.47
2023-03-12T15:48:29.589Z,2.20
2023-03-12T15:50:57.604Z,1.67
2023-03-12T15:53:31.010Z,1.90
2023-03-12T15:56:07.794Z,1.80
2023-03-12T15:58:37.729Z,1.53
2023-03-12T16:01:10.872Z,1.70
2023-03-12T16:03:39.025Z,1.30
2023-03-12T16:06:10.328Z,1.80
2023-03-12T16:08:42.185Z,1.60
2023-03-12T16:11:17.640Z,1.40
2023-03-12T16:13:47.386Z,1.33
2023-03-12T16:16:16.074Z,1.30
2023-03-12T16:18:44.423Z,1.40
2023-03-12T16:21:12.578Z,1.93
2023-03-12T16:23:41.743Z,1.50
2023-03-12T16:26:09.639Z,2.17
2023-03-12T16:28:37.832Z,1.90
2023-03-12T16:31:12.642Z,2.10
2023-03-12T16:33:40.640Z,1.73
2023-03-12T16:36:13.927Z,2.03
2023-03-12T16:38:43.222Z,1.90
2023-03-12T16:41:14.006Z,2.20
2023-03-12T16:43:43.301Z,1.30
2023-03-12T16:46:11.622Z,2.00
2023-03-12T16:48:39.938Z,2.50
2023-03-12T16:51:15.025Z,1.53
2023-03-12T16:53:44.786Z,1.50
2023-03-12T16:56:17.568Z,1.40
2023-03-12T16:58:46.287Z,1.40
2023-03-12T17:01:15.882Z,1.70
2023-03-12T17:03:49.352Z,1.30
2023-03-12T17:06:19.436Z,1.70
2023-03-12T17:08:48.629Z,2.07
2023-03-12T17:11:19.089Z,1.97
2023-03-12T17:13:49.811Z,3.43
2023-03-12T17:16:17.787Z,1.87
2023-03-12T17:18:45.794Z,1.90
2023-03-12T17:21:14.383Z,1.83
2023-03-12T17:23:42.632Z,1.80
2023-03-12T17:26:12.579Z,2.20
2023-03-12T17:28:40.584Z,1.90
2023-03-12T17:31:08.753Z,1.67
2023-03-12T17:33:38.213Z,1.70
2023-03-12T17:36:09.266Z,1.90
2023-03-12T17:38:37.597Z,2.30
2023-03-12T17:41:16.669Z,1.93
2023-03-12T17:43:52.897Z,2.20
2023-03-12T17:46:20.781Z,2.37
2023-03-12T17:48:48.621Z,4.93
2023-03-12T17:51:16.851Z,6.20
2023-03-12T17:53:44.879Z,5.30
2023-03-12T17:56:13.299Z,4.23
2023-03-12T17:58:41.171Z,5.13
2023-03-12T18:01:12.132Z,3.73
2023-03-12T18:03:41.015Z,2.33
2023-03-12T18:06:08.949Z,2.27
2023-03-12T18:08:36.841Z,2.63
2023-03-12T18:11:04.866Z,2.33
2023-03-12T18:13:32.783Z,3.37
2023-03-12T18:16:00.938Z,2.70
2023-03-12T18:18:30.264Z,5.07
2023-03-12T18:20:58.240Z,6.60
2023-03-12T18:23:26.181Z,4.87
2023-03-12T18:25:53.989Z,4.37
2023-03-12T18:28:22.580Z,2.40
2023-03-12T18:30:50.652Z,3.17
2023-03-12T18:33:18.581Z,3.23
2023-03-12T18:35:47.762Z,4.57
2023-03-12T18:38:15.615Z,7.67
2023-03-12T18:40:43.461Z,7.07
2023-03-12T18:43:12.644Z,8.07
2023-03-12T18:45:42.682Z,5.10
2023-03-12T18:48:10.822Z,2.90
2023-03-12T18:50:38.894Z,2.47
2023-03-12T18:53:08.136Z,3.00
2023-03-12T18:55:35.985Z,4.13
2023-03-12T18:58:03.951Z,4.33
2023-03-12T19:00:31.950Z,4.63
2023-03-12T19:02:59.966Z,4.53
2023-03-12T19:05:27.808Z,4.60
2023-03-12T19:07:55.769Z,4.73
2023-03-12T19:10:24.965Z,4.67
2023-03-12T19:12:54.142Z,2.87
2023-03-12T19:15:23.931Z,2.90
2023-03-12T19:17:52.550Z,3.10
2023-03-12T19:20:21.045Z,2.57
2023-03-12T19:22:48.925Z,2.90
2023-03-12T19:25:16.991Z,2.67
2023-03-12T19:27:46.188Z,3.00
2023-03-12T19:30:14.706Z,2.90
2023-03-12T19:32:44.452Z,3.23
2023-03-12T19:35:14.565Z,2.97
2023-03-12T19:37:42.839Z,2.87
2023-03-12T19:40:13.318Z,2.47
2023-03-12T19:42:41.434Z,2.27
2023-03-12T19:45:11.647Z,2.30
2023-03-12T19:47:39.571Z,2.80
2023-03-12T19:50:08.287Z,2.70
2023-03-12T19:52:36.108Z,3.27
2023-03-12T19:55:05.552Z,2.60
2023-03-12T19:57:33.860Z,2.87
2023-03-12T20:00:01.765Z,2.60
2023-03-12T20:02:31.024Z,2.97
2023-03-12T20:04:58.932Z,2.70
2023-03-12T20:07:26.832Z,2.40
2023-03-12T20:09:54.892Z,2.60
2023-03-12T20:12:22.979Z,2.67
2023-03-12T20:14:50.872Z,2.70
2023-03-12T20:17:18.901Z,2.73
2023-03-12T20:19:49.131Z,3.27
2023-03-12T20:22:17.206Z,3.10
2023-03-12T20:24:45.067Z,3.40
2023-03-12T20:27:12.908Z,2.60
2023-03-12T20:29:40.791Z,2.73
2023-03-12T20:32:08.768Z,2.37
2023-03-12T20:34:37.291Z,3.50
2023-03-12T20:37:06.805Z,3.07
2023-03-12T20:39:34.843Z,2.90
2023-03-12T20:42:02.790Z,2.37
2023-03-12T20:44:30.666Z,3.00
2023-03-12T20:46:58.479Z,2.80
2023-03-12T20:49:26.343Z,2.50
2023-03-12T20:51:54.167Z,3.10
2023-03-12T20:54:23.426Z,2.93
2023-03-12T20:56:51.269Z,12.70
2023-03-12T20:59:20.279Z,8.10
2023-03-12T21:01:48.130Z,4.43
2023-03-12T21:04:16.229Z,4.27
2023-03-12T21:06:45.053Z,2.97
2023-03-12T21:09:12.919Z,2.70
2023-03-12T21:11:42.105Z,3.00
2023-03-12T21:14:10.077Z,2.43
2023-03-12T21:16:38.271Z,2.47
2023-03-12T21:19:06.155Z,3.03
2023-03-12T21:21:35.268Z,2.67
2023-03-12T21:24:03.383Z,2.50
2023-03-12T21:26:31.206Z,2.67
2023-03-12T21:29:00.385Z,3.93
2023-03-12T21:31:28.351Z,2.77
2023-03-12T21:33:56.678Z,2.20
2023-03-12T21:36:24.960Z,1.93
2023-03-12T21:38:53.215Z,2.97
2023-03-12T21:41:22.207Z,2.27
2023-03-12T21:43:50.018Z,2.57
2023-03-12T21:46:24.524Z,3.00
2023-03-12T21:48:52.627Z,2.33
2023-03-12T21:51:22.577Z,2.23
2023-03-12T21:53:54.105Z,2.47
2023-03-12T21:56:21.986Z,2.40
2023-03-12T21:58:49.840Z,2.50
2023-03-12T22:01:20.010Z,2.27
2023-03-12T22:03:48.378Z,2.30
2023-03-12T22:06:17.134Z,2.47
2023-03-12T22:08:47.004Z,2.10
2023-03-12T22:11:16.170Z,2.33
2023-03-12T22:13:43.980Z,2.13
2023-03-12T22:16:13.518Z,2.23
2023-03-12T22:18:44.942Z,2.90
2023-03-12T22:21:18.443Z,1.73
2023-03-12T22:23:47.901Z,2.03
2023-03-12T22:26:16.353Z,2.13
2023-03-12T22:28:44.285Z,2.20
2023-03-12T22:31:12.099Z,1.90
2023-03-12T22:33:39.930Z,2.03
2023-03-12T22:36:11.032Z,2.20
2023-03-12T22:38:39.724Z,2.37
2023-03-12T22:41:19.137Z,1.60
2023-03-12T22:43:47.937Z,2.50
2023-03-12T22:46:17.032Z,2.00
2023-03-12T22:48:46.164Z,1.80
2023-03-12T22:51:15.621Z,1.70
2023-03-12T22:53:43.496Z,1.77
2023-03-12T22:56:13.287Z,2.03
2023-03-12T22:58:41.314Z,1.63
2023-03-12T23:01:11.186Z,1.43
2023-03-12T23:03:40.102Z,1.60
2023-03-12T23:06:10.031Z,2.17
2023-03-12T23:08:39.792Z,1.87
2023-03-12T23:11:08.779Z,1.90
2023-03-12T23:13:38.801Z,2.23
2023-03-12T23:16:09.085Z,1.53
2023-03-12T23:18:38.139Z,1.90
2023-03-12T23:21:08.056Z,1.37
2023-03-12T23:23:37.476Z,1.30
2023-03-12T23:26:07.541Z,2.00
2023-03-12T23:28:35.398Z,1.20
2023-03-12T23:31:05.452Z,1.67
2023-03-12T23:33:34.788Z,1.47
2023-03-12T23:36:04.977Z,1.27
2023-03-12T23:38:34.711Z,1.93
2023-03-12T23:41:07.220Z,1.40
2023-03-12T23:43:35.223Z,1.53
2023-03-12T23:46:05.749Z,1.80
2023-03-12T23:48:35.050Z,1.60
2023-03-12T23:51:07.124Z,1.27
2023-03-12T23:53:35.824Z,1.70
2023-03-12T23:56:07.531Z,1.53
2023-03-12T23:58:35.570Z,1.10
